Time;durP1;ratioP1;P1;durP2;ratioP2;P2;SDS_P1;SDS_P2;PMS_P1;PMS_P2;Temp;Humidity;BMP_temperature;BMP_pressure;BME280_temperature;BME280_humidity;BME280_pressure;Samples;Min_cycle;Max_cycle;Signal;HPM_P1;HPM_P2
2022/06/10 00:01:18;;;;;;;54.80;34.38;;;;;;;15.98;100.00;101079.97;4810388;30;20090;-88
2022/06/10 00:03:44;;;;;;;59.60;36.50;;;;;;;16.75;100.00;101201.63;4778236;30;20040;-88
2022/06/10 00:06:12;;;;;;;51.55;34.50;;;;;;;16.17;100.00;101115.25;4777768;30;20051;-88
2022/06/10 00:08:42;;;;;;;65.28;38.47;;;;;;;16.00;100.00;101087.91;4778158;30;20063;-87
2022/06/10 00:11:10;;;;;;;65.00;38.47;;;;;;;15.83;100.00;101074.13;4777728;30;20039;-87
2022/06/10 00:13:41;;;;;;;69.05;39.72;;;;;;;16.61;100.00;101209.09;4792753;30;20016;-87
2022/06/10 00:16:08;;;;;;;71.93;39.92;;;;;;;15.78;100.00;101087.53;4803575;30;20043;-87
2022/06/10 00:18:34;;;;;;;63.17;39.90;;;;;;;15.91;100.00;101109.09;4777214;30;20022;-87
2022/06/10 00:21:02;;;;;;;69.80;39.85;;;;;;;16.03;100.00;101127.34;4792890;30;20015;-87
2022/06/10 00:23:28;;;;;;;71.40;42.13;;;;;;;16.26;100.00;101179.06;4792144;30;20036;-87
2022/06/10 00:25:54;;;;;;;78.72;43.53;;;;;;;15.58;100.00;101074.19;4776735;30;20070;-86
2022/06/10 00:28:20;;;;;;;68.15;42.42;;;;;;;15.68;100.00;101098.91;4777469;30;20048;-86
2022/06/10 00:30:46;;;;;;;70.50;44.00;;;;;;;15.87;100.00;101136.94;4777256;30;20027;-87
2022/06/10 00:33:12;;;;;;;80.07;45.60;;;;;;;15.87;100.00;101136.94;4778220;30;20015;-88
2022/06/10 00:35:39;;;;;;;63.35;41.70;;;;;;;15.82;100.00;101143.00;4780575;30;20095;-86
2022/06/10 00:38:06;;;;;;;73.85;44.95;;;;;;;15.91;100.00;101159.84;4796157;30;20051;-87
2022/06/10 00:40:37;;;;;;;81.22;48.20;;;;;;;15.58;100.00;101123.00;4779745;30;20154;-86
2022/06/10 00:43:04;;;;;;;71.82;45.22;;;;;;;15.83;100.00;101162.88;4787428;30;20049;-87
2022/06/10 00:46:19;;;;;;;84.13;47.97;;;;;;;15.86;100.00;101179.53;4813996;30;20049;-85
2022/06/10 00:49:03;;;;;;;74.85;46.35;;;;;;;16.11;100.00;101225.59;4794304;30;20032;-88
2022/06/10 00:56:48;;;;;;;68.90;44.90;;;;;;;15.22;100.00;101099.38;5098118;24;20062;-88
2022/06/10 00:59:22;;;;;;;80.55;46.20;;;;;;;15.52;100.00;101162.69;4886916;29;20099;-89
2022/06/10 01:01:52;;;;;;;62.17;41.65;;;;;;;16.01;100.00;101243.47;4887054;29;20048;-88
2022/06/10 01:04:19;;;;;;;67.35;42.70;;;;;;;16.01;100.00;101246.16;4871153;29;20040;-88
2022/06/10 01:06:45;;;;;;;69.85;43.55;;;;;;;15.21;100.00;101132.94;4877237;29;20021;-88
2022/06/10 01:09:11;;;;;;;65.03;41.20;;;;;;;15.11;100.00;101117.19;4889737;29;20018;-88
2022/06/10 01:11:54;;;;;;;63.45;40.20;;;;;;;16.00;100.00;101260.81;4950512;24;20073;-88
2022/06/10 01:14:41;;;;;;;55.50;38.03;;;;;;;16.02;100.00;101272.25;4849781;29;20110;-88
2022/06/10 01:17:18;;;;;;;54.90;37.40;;;;;;;15.39;100.00;101176.38;4845713;29;20041;-88
2022/06/10 01:20:08;;;;;;;57.03;39.75;;;;;;;15.45;100.00;101178.19;4850228;29;20018;-89
2022/06/10 01:22:58;;;;;;;58.55;38.95;;;;;;;16.04;100.00;101264.72;4820574;29;20019;-89
2022/06/10 01:26:10;;;;;;;56.75;39.15;;;;;;;15.29;100.00;101157.06;4832270;29;20067;-89
2022/06/10 01:28:53;;;;;;;55.42;37.40;;;;;;;15.98;100.00;101263.72;4783537;29;20035;-89
2022/06/10 01:31:28;;;;;;;51.17;38.53;;;;;;;15.98;100.00;101264.56;4850538;29;20038;-90
2022/06/10 01:34:07;;;;;;;52.25;36.33;;;;;;;15.97;100.00;101262.06;4850326;29;20071;-88
2022/06/10 01:36:51;;;;;;;51.42;37.28;;;;;;;15.96;100.00;101271.28;4850419;29;20038;-89
2022/06/10 01:39:40;;;;;;;51.88;36.58;;;;;;;15.40;100.00;101191.59;4842895;29;20045;-89
2022/06/10 01:42:25;;;;;;;42.55;32.83;;;;;;;15.92;100.00;101276.28;4835367;29;20122;-88
2022/06/10 01:44:59;;;;;;;51.05;36.88;;;;;;;15.08;100.00;101149.31;4815551;29;20027;-89
2022/06/10 01:47:42;;;;;;;49.17;36.05;;;;;;;15.93;100.00;101277.97;4832039;29;20031;-89
2022/06/10 01:50:39;;;;;;;51.30;36.55;;;;;;;15.39;100.00;101208.09;4831833;29;20458;-88
2022/06/10 01:53:10;;;;;;;51.28;35.13;;;;;;;15.06;100.00;101167.69;4831999;29;20034;-89
2022/06/10 01:55:48;;;;;;;52.03;36.78;;;;;;;15.10;100.00;101163.47;4816205;29;20057;-89
2022/06/10 01:58:59;;;;;;;56.40;38.28;;;;;;;15.48;100.00;101229.28;4830848;29;20046;-89
2022/06/10 02:01:32;;;;;;;60.55;39.47;;;;;;;14.77;100.00;101169.97;4757883;30;20029;-89
2022/06/10 02:04:08;;;;;;;68.43;42.17;;;;;;;15.71;100.00;101295.69;4809745;29;20065;-90
2022/06/10 02:06:43;;;;;;;73.30;45.67;;;;;;;14.70;100.00;101167.31;4815473;29;20075;-89
2022/06/10 02:09:14;;;;;;;69.50;43.65;;;;;;;15.13;100.00;101203.69;4814962;29;20035;-89
2022/06/10 02:11:45;;;;;;;95.13;49.47;;;;;;;15.19;100.00;101190.09;4830575;29;20038;-89
2022/06/10 02:14:26;;;;;;;103.00;52.30;;;;;;;15.02;100.00;101164.56;4815268;29;20033;-89
2022/06/10 02:16:55;;;;;;;113.72;55.03;;;;;;;14.97;100.00;101159.00;4815056;29;20087;-90
2022/06/10 02:19:48;;;;;;;129.57;61.72;;;;;;;15.26;100.00;101200.88;4830685;29;20031;-89
2022/06/10 02:22:25;;;;;;;125.90;60.42;;;;;;;15.60;100.00;101261.13;4830074;29;20037;-89
2022/06/10 02:24:55;;;;;;;151.25;64.25;;;;;;;14.91;100.00;101171.53;4830392;29;20010;-89
2022/06/10 02:27:27;;;;;;;166.75;63.90;;;;;;;15.72;100.00;101300.06;4813103;29;20031;-89
2022/06/10 02:30:02;;;;;;;174.57;63.25;;;;;;;14.87;100.00;101166.78;4823582;29;20054;-89
2022/06/10 02:32:29;;;;;;;157.15;60.90;;;;;;;15.06;100.00;101208.31;4828828;29;20054;-89
2022/06/10 02:34:57;;;;;;;126.07;54.15;;;;;;;15.59;100.00;101300.97;4828738;29;20017;-89
2022/06/10 02:37:44;;;;;;;118.88;53.63;;;;;;;15.61;100.00;101306.19;4852384;24;20058;-89
2022/06/10 02:40:17;;;;;;;134.00;54.13;;;;;;;15.21;100.00;101246.81;4844144;29;20030;-88
2022/06/10 02:42:51;;;;;;;137.35;53.22;;;;;;;14.76;100.00;101188.06;4846711;29;20031;-89
2022/06/10 02:45:22;;;;;;;;;;;;;;;15.54;100.00;101316.25;4829957;29;20118;-87
2022/06/10 02:47:51;;;;;;;151.57;51.10;;;;;;;15.52;100.00;101314.56;4842857;29;19920;-87
2022/06/10 02:50:17;;;;;;;130.40;49.20;;;;;;;15.02;100.00;101233.16;4847569;29;20483;-89
2022/06/10 02:52:44;;;;;;;193.23;55.17;;;;;;;15.56;100.00;101317.69;4831496;29;20053;-89
2022/06/10 02:55:19;;;;;;;191.15;53.13;;;;;;;14.79;100.00;101194.94;4845898;29;20035;-88
2022/06/10 03:03:36;;;;;;;185.07;52.65;;;;;;;14.72;100.00;101197.69;4847422;29;20054;-89
2022/06/10 03:06:19;;;;;;;146.55;51.20;;;;;;;15.02;100.00;101260.25;4845748;29;20030;-89
2022/06/10 03:09:01;;;;;;;159.55;51.15;;;;;;;14.88;100.00;101234.28;4846683;29;20086;-90
2022/06/10 03:11:37;;;;;;;173.80;53.90;;;;;;;14.67;100.00;101202.09;4843649;29;20030;-87
2022/06/10 03:14:21;;;;;;;174.13;54.75;;;;;;;14.92;100.00;101246.34;4842662;29;20049;-88
2022/06/10 03:17:30;;;;;;;206.45;59.50;;;;;;;14.70;100.00;101213.34;4843458;29;20086;-88
2022/06/10 03:20:08;;;;;;;183.00;54.58;;;;;;;15.50;100.00;101335.69;4956917;24;20058;-89
2022/06/10 03:22:52;;;;;;;206.32;57.30;;;;;;;15.51;100.00;101350.91;4848665;29;20022;-88
2022/06/10 03:25:24;;;;;;;221.97;59.97;;;;;;;14.89;100.00;101252.19;4865506;29;20045;-89
2022/06/10 03:28:13;;;;;;;206.88;59.17;;;;;;;15.48;100.00;101345.06;4849686;29;20272;-89
2022/06/10 03:30:49;;;;;;;222.73;60.10;;;;;;;14.66;100.00;101211.28;4865133;29;20073;-89
2022/06/10 03:33:28;;;;;;;194.88;59.08;;;;;;;14.69;100.00;101221.69;4849800;29;20094;-89
2022/06/10 03:36:01;;;;;;;220.65;61.05;;;;;;;15.24;100.00;101306.84;4865690;29;20022;-88
2022/06/10 03:38:30;;;;;;;212.43;56.53;;;;;;;14.87;100.00;101246.19;4850426;29;20033;-88
2022/06/10 03:40:58;;;;;;;186.70;56.60;;;;;;;14.76;100.00;101230.59;4864809;29;20010;-89
2022/06/10 03:43:25;;;;;;;179.98;54.50;;;;;;;14.86;100.00;101239.09;4865273;29;20014;-89
2022/06/10 03:46:00;;;;;;;167.45;52.45;;;;;;;14.79;100.00;101222.03;4865450;29;20022;-87
2022/06/10 03:48:28;;;;;;;157.40;51.25;;;;;;;15.06;100.00;101265.25;4865955;29;20013;-90
2022/06/10 03:50:55;;;;;;;154.48;51.28;;;;;;;15.00;100.00;101256.13;4865592;29;20128;-89
2022/06/10 03:53:25;;;;;;;147.23;50.45;;;;;;;14.99;100.00;101260.69;4865350;29;20165;-89
2022/06/10 03:55:51;;;;;;;149.60;49.13;;;;;;;15.67;100.00;101363.13;4849591;29;20026;-89
2022/06/10 03:58:17;;;;;;;154.75;49.20;;;;;;;14.87;100.00;101235.34;4850242;29;20041;-89
2022/06/10 04:00:44;;;;;;;160.45;52.08;;;;;;;14.83;100.00;101223.25;4865802;29;20040;-90
2022/06/10 04:03:10;;;;;;;171.77;51.45;;;;;;;15.17;100.00;101267.28;4865731;29;20030;-89
2022/06/10 04:05:35;;;;;;;179.20;49.78;;;;;;;15.18;100.00;101274.34;4834899;29;20089;-90
2022/06/10 04:08:01;;;;;;;170.00;48.67;;;;;;;15.16;100.00;101276.44;4851388;29;20072;-87
2022/06/10 04:10:29;;;;;;;176.98;50.38;;;;;;;14.92;100.00;101249.06;4855639;29;20045;-88
2022/06/10 04:12:55;;;;;;;176.00;51.83;;;;;;;15.16;100.00;101279.16;4872092;29;20014;-89
2022/06/10 04:15:21;;;;;;;164.98;53.83;;;;;;;15.65;100.00;101364.38;4859462;29;20088;-89
2022/06/10 04:20:26;;;;;;;147.77;48.60;;;;;;;15.10;100.00;101294.44;5314204;24;20057;-90
2022/06/10 04:28:11;;;;;;;107.35;46.80;;;;;;;14.80;100.00;101273.31;4888974;29;20086;-90
2022/06/10 04:33:14;;;;;;;74.15;40.70;;;;;;;14.86;100.00;101298.69;4967649;24;20065;-90
2022/06/10 04:35:42;;;;;;;76.43;40.25;;;;;;;15.10;100.00;101328.81;4951091;24;20064;-90
2022/06/10 04:38:09;;;;;;;56.63;33.95;;;;;;;14.62;100.00;101269.63;4964643;24;20061;-89
2022/06/10 04:40:36;;;;;;;55.35;34.65;;;;;;;14.51;100.00;101250.31;4883555;29;20037;-89
2022/06/10 04:43:07;;;;;;;35.92;24.42;;;;;;;14.68;100.00;101285.03;4868963;29;20101;-90
2022/06/10 04:45:44;;;;;;;31.63;20.80;;;;;;;15.01;100.00;101341.78;4899657;29;20017;-90
2022/06/10 04:48:11;;;;;;;26.15;16.45;;;;;;;15.40;100.00;101399.59;4889517;29;20044;-89
2022/06/10 04:55:43;;;;;;;21.98;14.50;;;;;;;14.86;100.00;101328.50;5240441;24;20061;-89
2022/06/10 04:58:09;;;;;;;21.58;13.88;;;;;;;14.62;100.00;101297.53;4877753;29;20172;-89
2022/06/10 05:00:39;;;;;;;15.18;11.38;;;;;;;15.30;100.00;101402.75;4872694;29;20033;-90
2022/06/10 05:03:06;;;;;;;13.77;8.43;;;;;;;14.77;100.00;101322.50;4868695;29;20428;-89
2022/06/10 05:05:32;;;;;;;8.68;5.13;;;;;;;14.72;100.00;101329.59;4870900;29;20026;-89
2022/06/10 05:07:58;;;;;;;6.60;3.42;;;;;;;14.51;100.00;101315.28;4884518;29;20033;-89
2022/06/10 05:10:24;;;;;;;9.02;3.33;;;;;;;14.38;100.00;101299.06;4881413;29;20039;-89
2022/06/10 05:12:50;;;;;;;9.18;4.90;;;;;;;14.56;100.00;101339.84;4900213;29;20103;-89
2022/06/10 05:15:21;;;;;;;12.13;6.43;;;;;;;14.48;100.00;101345.47;4887481;29;20025;-89
2022/06/10 05:17:50;;;;;;;13.77;6.00;;;;;;;13.97;100.00;101283.06;4879334;29;20084;-90
2022/06/10 05:20:22;;;;;;;11.43;6.45;;;;;;;13.95;100.00;101299.53;4868389;29;20132;-89
2022/06/10 05:22:48;;;;;;;11.55;5.60;;;;;;;14.29;100.00;101346.34;4886702;29;20058;-89
2022/06/10 05:25:14;;;;;;;12.00;6.30;;;;;;;14.00;100.00;101317.84;4868004;29;20053;-89
2022/06/10 05:27:40;;;;;;;11.40;5.65;;;;;;;14.72;100.00;101433.38;4863818;29;20033;-90
2022/06/10 05:30:07;;;;;;;11.43;4.82;;;;;;;14.08;100.00;101350.09;4863378;29;20097;-89
2022/06/10 05:32:33;;;;;;;10.98;4.47;;;;;;;13.93;100.00;101344.06;4863044;29;20033;-89
2022/06/10 05:34:58;;;;;;;13.07;4.70;;;;;;;13.85;100.00;101345.13;4882173;29;20041;-89
2022/06/10 05:37:26;;;;;;;13.48;4.30;;;;;;;13.59;100.00;101305.34;4868697;29;20029;-88
2022/06/10 05:39:53;;;;;;;11.18;3.97;;;;;;;13.79;100.00;101371.09;4901581;29;20017;-91
2022/06/10 05:42:19;;;;;;;12.07;3.53;;;;;;;13.79;100.00;101378.41;4887512;29;20045;-90
2022/06/10 05:44:47;;;;;;;10.95;3.95;;;;;;;13.48;100.00;101324.91;4888052;29;20051;-89
2022/06/10 05:47:16;;;;;;;7.85;3.63;;;;;;;13.63;100.00;101358.81;4889359;29;20026;-90
2022/06/10 05:49:44;;;;;;;12.77;3.88;;;;;;;13.53;100.00;101322.41;4890416;29;20036;-90
2022/06/10 05:52:12;;;;;;;9.82;3.83;;;;;;;13.82;100.00;101389.63;4886974;29;20013;-91
2022/06/10 05:54:41;;;;;;;8.95;3.90;;;;;;;13.78;100.00;101374.03;4870473;29;20037;-89
2022/06/10 05:57:07;;;;;;;13.32;3.60;;;;;;;13.56;100.00;101343.63;4875578;29;20031;-91
2022/06/10 05:59:33;;;;;;;10.23;3.90;;;;;;;13.58;100.00;101353.19;4889376;29;20032;-91
2022/06/10 06:02:08;;;;;;;14.77;4.30;;;;;;;13.77;100.00;101380.47;4891605;29;20602;-88
2022/06/10 06:04:33;;;;;;;13.43;4.22;;;;;;;14.22;100.00;101464.63;5077895;24;20149;-84
2022/06/10 06:06:59;;;;;;;12.55;3.75;;;;;;;13.46;100.00;101346.72;4832900;29;20062;-91
2022/06/10 06:09:26;;;;;;;9.10;3.90;;;;;;;13.44;100.00;101343.38;4836392;29;20054;-92
2022/06/10 06:40:19;;;;;;;12.88;4.35;;;;;;;13.70;100.00;101412.06;5690314;24;20054;-88
2022/06/10 06:58:17;;;;;;;12.38;4.35;;;;;;;13.65;100.00;101431.63;5405022;24;20071;-91
2022/06/10 07:03:18;;;;;;;11.45;4.82;;;;;;;13.51;100.00;101419.09;5198368;23;20038;-92
2022/06/10 07:21:14;;;;;;;11.32;3.60;;;;;;;13.92;100.00;101459.56;5165212;23;20057;-92
2022/06/10 07:31:25;;;;;;;7.60;3.50;;;;;;;13.99;100.00;101448.75;5301721;23;20088;-91
2022/06/10 07:33:51;;;;;;;8.48;3.40;;;;;;;14.05;100.00;101454.19;5507311;24;20047;-83
2022/06/10 07:44:11;;;;;;;5.90;3.03;;;;;;;14.12;100.00;101470.44;4896538;29;20116;-91
2022/06/10 07:46:37;;;;;;;7.80;2.97;;;;;;;14.47;100.00;101527.09;4871211;29;20017;-91
2022/06/10 07:49:03;;;;;;;7.20;3.10;;;;;;;14.46;100.00;101510.00;4883253;29;20024;-91
2022/06/10 07:51:29;;;;;;;8.57;3.38;;;;;;;14.66;100.00;101534.44;4884248;29;20029;-90
2022/06/10 07:54:10;;;;;;;6.70;3.00;;;;;;;14.52;100.00;101509.22;4869025;29;20051;-91
2022/06/10 07:56:37;;;;;;;6.35;2.85;;;;;;;14.18;100.00;101450.66;4882477;29;20020;-90
2022/06/10 07:59:05;;;;;;;5.97;2.80;;;;;;;14.34;100.00;101495.44;4867700;29;20077;-91
2022/06/10 08:32:55;;;;;;;3.88;2.15;;;;;;;15.93;100.00;101540.44;5061506;24;20093;-91
2022/06/10 08:48:34;;;;;;;7.85;2.80;;;;;;;16.04;100.00;101549.75;5494208;24;20037;-92
2022/06/10 09:09:20;;;;;;;4.65;2.85;;;;;;;16.46;100.00;101553.69;5545055;24;20052;-90
2022/06/10 09:37:26;;;;;;;2.63;1.67;;;;;;;17.40;100.00;101545.53;5075576;23;20032;-82
2022/06/10 09:43:09;;;;;;;;;;;;;;;17.91;100.00;101673.09;4867432;29;20067;-86
2022/06/10 09:45:47;;;;;;;2.38;1.50;;;;;;;17.95;100.00;101673.50;4844005;29;19944;-86
2022/06/10 09:48:34;;;;;;;3.63;1.80;;;;;;;17.83;100.00;101678.88;4965230;23;20061;-84
2022/06/10 09:54:25;;;;;;;2.30;1.77;;;;;;;16.94;100.00;101533.25;5061289;23;20041;-89
2022/06/10 09:57:16;;;;;;;4.68;1.98;;;;;;;18.06;100.00;101667.28;4871749;29;20030;-87
2022/06/10 09:59:52;;;;;;;3.45;1.80;;;;;;;17.35;100.00;101541.63;4861061;29;20022;-88
2022/06/10 10:02:20;;;;;;;3.17;1.88;;;;;;;18.29;100.00;101678.31;4852668;29;20038;-88
2022/06/10 10:10:39;;;;;;;2.53;1.33;;;;;;;18.36;100.00;101682.84;5059038;23;20061;-90
2022/06/10 10:13:23;;;;;;;2.28;1.50;;;;;;;18.47;100.00;101674.72;4885878;29;20025;-89
2022/06/10 10:37:40;;;;;;;5.25;1.80;;;;;;;16.52;100.00;101278.38;5739979;24;20053;-89
2022/06/10 11:42:55;;;;;;;4.22;2.70;;;;;;;18.18;100.00;101710.94;5927141;23;20028;31
2022/06/10 11:51:31;;;;;;;3.75;2.45;;;;;;;17.68;100.00;101648.41;5107999;23;20045;-80
2022/06/10 11:54:12;;;;;;;2.83;1.93;;;;;;;17.49;100.00;101582.28;4857959;29;20043;-87
2022/06/10 11:59:57;;;;;;;4.07;2.33;;;;;;;17.63;100.00;101624.59;4851719;29;20063;-87
2022/06/10 12:02:52;;;;;;;5.30;2.55;;;;;;;17.55;100.00;101623.03;4861933;29;20048;-88
2022/06/10 12:05:45;;;;;;;5.28;2.92;;;;;;;18.13;100.00;101713.53;4865638;29;20046;-89
2022/06/10 12:08:27;;;;;;;4.68;3.03;;;;;;;17.99;100.00;101716.38;4838349;29;20068;-87
2022/06/10 12:11:04;;;;;;;4.15;2.90;;;;;;;18.10;100.00;101709.34;4847531;29;20022;-89
2022/06/10 12:16:57;;;;;;;5.40;3.58;;;;;;;18.27;100.00;101729.47;4977451;24;20084;-89
2022/06/10 12:19:36;;;;;;;;;;;;;;;18.48;100.00;101711.81;4887715;29;20017;-89
2022/06/10 12:22:02;;;;;;;6.70;3.45;;;;;;;18.03;100.00;101624.16;4900003;29;19951;-87
2022/06/10 12:24:28;;;;;;;3.65;3.15;;;;;;;17.79;100.00;101591.38;4886663;29;20029;-88
2022/06/10 12:26:59;;;;;;;4.35;3.25;;;;;;;18.19;100.00;101645.34;4886760;29;20085;-88
2022/06/10 12:29:38;;;;;;;3.72;3.05;;;;;;;17.70;100.00;101609.03;4886531;29;20073;-89
2022/06/10 12:34:53;;;;;;;5.80;3.38;;;;;;;18.31;100.00;101713.53;5155580;24;20052;-89
2022/06/10 12:37:28;;;;;;;6.65;2.80;;;;;;;17.57;100.00;101593.69;4906116;29;20021;-88
2022/06/10 12:40:12;;;;;;;6.10;2.75;;;;;;;17.57;100.00;101603.72;4906058;29;20009;-88
2022/06/10 12:42:51;;;;;;;4.15;2.75;;;;;;;17.68;100.00;101623.91;4890355;29;20037;-88
2022/06/10 12:45:19;;;;;;;3.88;2.30;;;;;;;18.31;100.00;101708.06;5178270;24;20118;-82
2022/06/10 12:47:47;;;;;;;3.60;2.55;;;;;;;17.90;100.00;101629.78;4870618;29;20041;-89
2022/06/10 12:50:29;;;;;;;7.32;2.40;;;;;;;17.55;100.00;101573.22;4871988;29;20064;-88
2022/06/10 12:53:19;;;;;;;4.60;2.38;;;;;;;17.65;100.00;101565.34;4872230;29;20024;-89
2022/06/10 12:55:53;;;;;;;2.38;1.80;;;;;;;18.21;100.00;101610.53;4873091;29;20033;-89
2022/06/10 12:58:37;;;;;;;7.88;2.15;;;;;;;19.22;100.00;101703.44;4869970;29;20033;-87
2022/06/10 13:03:58;;;;;;;6.78;2.30;;;;;;;18.84;100.00;101579.22;5811044;24;20026;-80
2022/06/10 13:06:30;;;;;;;5.22;2.20;;;;;;;19.67;100.00;101697.47;4870545;29;20026;-90
2022/06/10 13:09:11;;;;;;;6.25;2.20;;;;;;;19.64;100.00;101704.22;5464119;23;20012;-85
2022/06/10 13:11:59;;;;;;;2.72;1.95;;;;;;;18.68;100.00;101583.44;4871599;29;20073;-90
2022/06/10 13:14:30;;;;;;;3.08;2.10;;;;;;;19.39;100.00;101703.56;4853085;29;20042;-89
2022/06/10 13:27:28;;;;;;;3.85;1.80;;;;;;;18.81;100.00;101578.84;4973245;24;20370;-89
2022/06/10 13:29:57;;;;;;;2.53;1.60;;;;;;;19.84;99.86;101711.22;4893598;29;20089;-89
2022/06/10 13:32:24;;;;;;;3.00;1.50;;;;;;;19.76;100.00;101648.75;4870992;29;20092;-88
2022/06/10 13:34:54;;;;;;;8.10;1.77;;;;;;;19.46;100.00;101584.19;4886417;29;20036;-88
2022/06/10 13:37:23;;;;;;;2.17;1.52;;;;;;;19.28;100.00;101559.78;4892377;29;20042;-88
2022/06/10 13:39:52;;;;;;;3.53;1.75;;;;;;;19.40;100.00;101563.31;4886524;29;20025;-88
2022/06/10 13:42:29;;;;;;;5.22;1.55;;;;;;;19.81;100.00;101629.75;4869953;29;20062;-87
2022/06/10 13:47:34;;;;;;;3.35;1.40;;;;;;;19.42;100.00;101599.38;4884695;24;20038;-87
2022/06/10 14:03:04;;;;;;;1.88;1.25;;;;;;;19.08;99.19;101569.16;5766475;24;20001;-83
2022/06/10 14:08:05;;;;;;;2.60;1.30;;;;;;;20.24;100.00;101705.81;5356127;24;20047;-89
2022/06/10 15:20:18;;;;;;;3.13;1.30;;;;;;;20.69;90.29;101584.72;4882988;29;20048;-83
2022/06/10 15:22:49;;;;;;;3.97;1.00;;;;;;;20.64;91.10;101552.66;5346611;24;20041;-90
2022/06/10 15:25:33;;;;;;;2.90;0.95;;;;;;;20.73;88.93;101541.31;4992728;24;20033;-82
2022/06/10 15:27:58;;;;;;;1.43;0.90;;;;;;;20.90;89.96;101585.91;4812360;29;20031;-86
2022/06/10 15:32:59;;;;;;;2.05;1.10;;;;;;;20.99;88.26;101535.19;5360477;24;19923;-87
2022/06/10 16:17:22;;;;;;;2.88;1.33;;;;;;;19.45;95.77;101577.91;5339408;23;20049;-90
2022/06/10 16:24:58;;;;;;;2.00;1.40;;;;;;;18.46;100.00;101536.81;5132010;24;20074;-91
2022/06/10 16:27:24;;;;;;;5.55;1.67;;;;;;;19.23;100.00;101662.25;4865898;29;20086;-90
2022/06/10 16:29:54;;;;;;;4.93;1.60;;;;;;;18.17;100.00;101554.00;4849407;29;20030;-90
2022/06/10 16:32:23;;;;;;;4.00;1.50;;;;;;;18.08;100.00;101542.63;4857351;29;20072;-91
2022/06/10 16:34:48;;;;;;;3.88;1.80;;;;;;;17.97;100.00;101532.50;4866335;29;20017;-91
2022/06/10 16:37:14;;;;;;;4.57;1.40;;;;;;;18.23;100.00;101575.72;4850167;29;20014;-92
2022/06/10 16:39:39;;;;;;;3.15;1.60;;;;;;;18.01;100.00;101528.25;4850544;29;20030;-93
2022/06/10 16:42:05;;;;;;;3.63;1.38;;;;;;;18.08;100.00;101545.34;5251681;24;20037;-92
2022/06/10 16:52:17;;;;;;;4.22;1.30;;;;;;;18.99;100.00;101671.50;4962669;23;20076;-89
2022/06/10 16:54:50;;;;;;;4.03;1.42;;;;;;;18.24;100.00;101533.78;5400916;24;20045;-89
2022/06/10 16:57:27;;;;;;;5.82;1.52;;;;;;;18.31;100.00;101536.44;4846599;29;20051;-91
2022/06/10 17:46:38;;;;;;;6.45;2.10;;;;;;;16.97;100.00;101503.72;5759756;24;20025;-88
2022/06/10 18:20:15;;;;;;;12.13;2.90;;;;;;;16.67;100.00;101468.22;4901204;24;20045;-92
2022/06/10 18:30:29;;;;;;;9.70;2.35;;;;;;;16.83;100.00;101519.31;4959287;23;20041;-90
2022/06/10 18:40:35;;;;;;;7.22;2.70;;;;;;;16.45;100.00;101476.75;5395681;23;20066;-91
2022/06/10 18:43:28;;;;;;;8.82;2.63;;;;;;;16.91;100.00;101548.09;4830804;29;20077;-89
2022/06/10 18:45:49;;;;;;;8.50;3.00;;;;;;;16.47;100.00;101490.13;4848653;29;20067;-93
2022/06/10 18:48:30;;;;;;;9.75;2.65;;;;;;;16.32;100.00;101476.88;4832520;29;20038;-92
2022/06/10 18:56:06;;;;;;;11.88;3.05;;;;;;;16.31;100.00;101482.53;4953200;23;20065;-91
2022/06/10 18:58:32;;;;;;;10.05;2.95;;;;;;;16.48;100.00;101520.84;4865623;29;20126;-90
2022/06/10 19:01:01;;;;;;;10.18;2.92;;;;;;;16.37;100.00;101506.94;4864252;29;20030;-90
2022/06/10 19:03:34;;;;;;;12.90;2.95;;;;;;;16.71;100.00;101548.25;4880551;29;20060;-89
2022/06/10 19:06:00;;;;;;;9.82;2.78;;;;;;;16.85;100.00;101578.88;4870138;29;20018;-91
2022/06/10 19:08:28;;;;;;;11.50;3.22;;;;;;;16.20;100.00;101487.63;4862982;29;20036;-90
2022/06/10 19:10:55;;;;;;;10.43;3.08;;;;;;;16.44;100.00;101525.88;4849376;29;20025;-90
2022/06/10 19:13:21;;;;;;;11.05;2.55;;;;;;;16.21;100.00;101494.72;4874963;29;20045;-91
2022/06/10 19:15:53;;;;;;;10.23;2.70;;;;;;;16.19;100.00;101485.09;4863476;29;20021;-91
2022/06/10 19:18:31;;;;;;;13.45;2.97;;;;;;;17.01;100.00;101607.41;4862560;29;20026;-90
2022/06/10 19:20:58;;;;;;;16.25;3.30;;;;;;;16.39;100.00;101540.16;4854070;29;20013;-91
2022/06/10 19:23:29;;;;;;;9.27;3.22;;;;;;;16.19;100.00;101498.69;4847392;29;20054;-88
2022/06/10 19:25:59;;;;;;;16.38;2.90;;;;;;;16.44;100.00;101532.16;4845406;29;20082;-87
2022/06/10 19:28:30;;;;;;;11.27;3.08;;;;;;;16.71;100.00;101589.00;4849630;29;20033;-88
2022/06/10 19:30:58;;;;;;;8.98;2.88;;;;;;;16.89;100.00;101629.91;4846872;29;20070;-90
2022/06/10 19:33:28;;;;;;;10.85;2.60;;;;;;;15.97;100.00;101482.75;4870535;29;20025;-87
2022/06/10 19:35:55;;;;;;;8.95;3.15;;;;;;;16.02;100.00;101500.28;4879847;29;20005;-87
2022/06/10 19:38:25;;;;;;;9.43;2.88;;;;;;;16.24;100.00;101539.59;4880617;29;20059;-88
2022/06/10 19:40:53;;;;;;;7.53;2.72;;;;;;;16.41;100.00;101570.63;4863967;29;20038;-86
2022/06/10 19:46:20;;;;;;;12.05;3.00;;;;;;;15.92;100.00;101498.84;4855626;29;20042;-84
2022/06/10 19:48:46;;;;;;;8.80;2.72;;;;;;;16.13;100.00;101535.72;4862220;29;20042;-88
2022/06/10 19:51:20;;;;;;;9.50;2.80;;;;;;;16.44;100.00;101585.66;4839673;29;20025;-85
2022/06/10 19:53:47;;;;;;;9.87;2.60;;;;;;;16.36;100.00;101570.47;4859943;29;20473;-85
2022/06/10 19:56:19;;;;;;;13.07;2.92;;;;;;;16.14;100.00;101534.66;4860450;29;20289;-88
2022/06/10 19:58:45;;;;;;;13.52;3.63;;;;;;;16.05;100.00;101529.69;4829041;29;20029;-85
2022/06/10 20:01:27;;;;;;;11.25;3.38;;;;;;;16.44;100.00;101591.09;4855626;29;20067;-84
2022/06/10 20:03:57;;;;;;;8.13;2.58;;;;;;;16.40;100.00;101600.72;4857332;29;20036;-85
2022/06/10 20:06:24;;;;;;;10.50;2.92;;;;;;;15.83;100.00;101513.75;4845183;29;20117;-86
2022/06/10 20:08:49;;;;;;;11.30;3.03;;;;;;;16.46;100.00;101608.00;4862230;29;20044;-86
2022/06/10 20:11:15;;;;;;;12.57;3.35;;;;;;;15.76;100.00;101501.25;4858810;29;20026;-87
2022/06/10 20:13:42;;;;;;;14.70;3.53;;;;;;;16.15;100.00;101557.19;4844508;29;20137;-81
2022/06/10 20:16:19;;;;;;;10.90;3.55;;;;;;;15.42;100.00;101451.72;4861402;29;20085;-87
2022/06/10 20:18:49;;;;;;;8.90;3.20;;;;;;;15.91;100.00;101529.78;4851811;29;20062;-84
2022/06/10 20:21:16;;;;;;;12.13;3.20;;;;;;;16.06;100.00;101551.22;4840059;29;20029;-81
2022/06/10 20:23:46;;;;;;;9.10;3.20;;;;;;;16.38;100.00;101613.69;4851834;29;20424;-83
2022/06/10 20:26:41;;;;;;;10.25;3.25;;;;;;;16.36;100.00;101616.63;4863200;29;20037;-82
2022/06/10 20:29:08;;;;;;;14.02;3.72;;;;;;;16.27;100.00;101598.91;4846598;29;20060;-83
2022/06/10 20:31:43;;;;;;;10.50;3.60;;;;;;;16.34;100.00;101609.75;4849117;29;20033;-82
2022/06/10 20:34:25;;;;;;;12.00;3.50;;;;;;;16.20;100.00;101592.69;4858575;29;20069;-81
2022/06/10 20:36:51;;;;;;;10.23;3.50;;;;;;;16.31;100.00;101607.47;4858411;29;20048;-81
2022/06/10 20:39:20;;;;;;;12.73;3.60;;;;;;;16.19;100.00;101585.56;4830956;29;20034;-81
2022/06/10 20:41:46;;;;;;;11.63;3.35;;;;;;;16.28;100.00;101600.56;4830566;29;20097;-82
2022/06/10 20:44:15;;;;;;;14.60;3.50;;;;;;;16.20;100.00;101595.41;4845003;29;20021;-81
2022/06/10 20:46:47;;;;;;;15.00;3.90;;;;;;;16.24;100.00;101593.91;4834626;29;20548;-80
2022/06/10 20:49:20;;;;;;;8.88;3.70;;;;;;;16.09;100.00;101577.06;4839183;29;20448;-82
2022/06/10 20:51:48;;;;;;;12.68;4.00;;;;;;;16.18;100.00;101589.34;4853889;29;20026;-83
2022/06/10 20:54:15;;;;;;;10.48;4.00;;;;;;;16.24;100.00;101598.53;4824459;29;20406;-79
2022/06/10 20:56:41;;;;;;;12.55;4.45;;;;;;;16.17;100.00;101588.53;4846351;29;20059;-84